sensor_id;sensor_type;location;lat;lon;timestamp;P1;durP1;ratioP1;P2;durP2;ratioP2
8675;SDS011;4375;52.486;13.424;2023-07-20T00:00:06;17.50;;;4.07;;
8675;SDS011;4375;52.486;13.424;2023-07-20T00:02:32;19.50;;;4.60;;
8675;SDS011;4375;52.486;13.424;2023-07-20T00:04:57;21.07;;;5.43;;
8675;SDS011;4375;52.486;13.424;2023-07-20T00:07:23;16.80;;;4.40;;
8675;SDS011;4375;52.486;13.424;2023-07-20T00:09:49;21.40;;;4.93;;
8675;SDS011;4375;52.486;13.424;2023-07-20T00:12:15;17.60;;;4.80;;
8675;SDS011;4375;52.486;13.424;2023-07-20T00:14:41;18.63;;;4.77;;
8675;SDS011;4375;52.486;13.424;2023-07-20T00:17:06;20.93;;;4.83;;
8675;SDS011;4375;52.486;13.424;2023-07-20T00:19:32;17.60;;;4.30;;
8675;SDS011;4375;52.486;13.424;2023-07-20T00:21:57;18.73;;;4.70;;
8675;SDS011;4375;52.486;13.424;2023-07-20T00:24:24;20.23;;;5.43;;
8675;SDS011;4375;52.486;13.424;2023-07-20T00:26:49;17.90;;;4.00;;
8675;SDS011;4375;52.486;13.424;2023-07-20T00:29:15;19.33;;;4.47;;
8675;SDS011;4375;52.486;13.424;2023-07-20T00:31:41;18.43;;;4.23;;
8675;SDS011;4375;52.486;13.424;2023-07-20T00:34:08;17.70;;;5.00;;
8675;SDS011;4375;52.486;13.424;2023-07-20T00:36:34;19.00;;;4.97;;
8675;SDS011;4375;52.486;13.424;2023-07-20T00:38:59;16.73;;;4.13;;
8675;SDS011;4375;52.486;13.424;2023-07-20T00:41:25;17.80;;;4.43;;
8675;SDS011;4375;52.486;13.424;2023-07-20T00:43:54;17.10;;;4.60;;
8675;SDS011;4375;52.486;13.424;2023-07-20T00:46:20;17.70;;;4.83;;
8675;SDS011;4375;52.486;13.424;2023-07-20T00:48:48;19.20;;;5.00;;
8675;SDS011;4375;52.486;13.424;2023-07-20T00:51:14;17.53;;;5.30;;
8675;SDS011;4375;52.486;13.424;2023-07-20T00:53:39;16.70;;;4.40;;
8675;SDS011;4375;52.486;13.424;2023-07-20T00:56:05;20.30;;;5.37;;
8675;SDS011;4375;52.486;13.424;2023-07-20T00:58:33;18.10;;;5.20;;
8675;SDS011;4375;52.486;13.424;2023-07-20T01:00:58;25.80;;;5.37;;
8675;SDS011;4375;52.486;13.424;2023-07-20T01:03:24;16.60;;;4.80;;
8675;SDS011;4375;52.486;13.424;2023-07-20T01:08:54;17.30;;;4.47;;
8675;SDS011;4375;52.486;13.424;2023-07-20T01:14:24;17.30;;;4.53;;
8675;SDS011;4375;52.486;13.424;2023-07-20T01:16:51;17.67;;;4.80;;
8675;SDS011;4375;52.486;13.424;2023-07-20T01:19:17;19.40;;;4.80;;
8675;SDS011;4375;52.486;13.424;2023-07-20T01:24:44;19.07;;;4.87;;
8675;SDS011;4375;52.486;13.424;2023-07-20T01:33:17;19.30;;;5.00;;
8675;SDS011;4375;52.486;13.424;2023-07-20T01:35:44;17.77;;;4.73;;
8675;SDS011;4375;52.486;13.424;2023-07-20T01:38:17;17.57;;;5.23;;
8675;SDS011;4375;52.486;13.424;2023-07-20T01:40:45;17.67;;;5.57;;
8675;SDS011;4375;52.486;13.424;2023-07-20T01:43:11;18.80;;;4.70;;
8675;SDS011;4375;52.486;13.424;2023-07-20T01:45:38;18.47;;;5.43;;
8675;SDS011;4375;52.486;13.424;2023-07-20T01:48:04;16.83;;;5.10;;
8675;SDS011;4375;52.486;13.424;2023-07-20T01:50:30;17.50;;;5.27;;
8675;SDS011;4375;52.486;13.424;2023-07-20T01:52:56;17.27;;;4.60;;
8675;SDS011;4375;52.486;13.424;2023-07-20T01:55:22;17.60;;;4.70;;
8675;SDS011;4375;52.486;13.424;2023-07-20T01:57:48;17.90;;;5.00;;
8675;SDS011;4375;52.486;13.424;2023-07-20T02:00:13;16.70;;;5.27;;
8675;SDS011;4375;52.486;13.424;2023-07-20T02:02:39;17.20;;;4.90;;
8675;SDS011;4375;52.486;13.424;2023-07-20T02:05:06;17.93;;;5.50;;
8675;SDS011;4375;52.486;13.424;2023-07-20T02:07:32;17.30;;;4.97;;
8675;SDS011;4375;52.486;13.424;2023-07-20T02:09:58;16.87;;;5.50;;
8675;SDS011;4375;52.486;13.424;2023-07-20T02:12:24;18.17;;;4.80;;
8675;SDS011;4375;52.486;13.424;2023-07-20T02:14:49;18.73;;;5.30;;
8675;SDS011;4375;52.486;13.424;2023-07-20T02:17:16;18.47;;;5.47;;
8675;SDS011;4375;52.486;13.424;2023-07-20T02:19:41;17.80;;;5.30;;
8675;SDS011;4375;52.486;13.424;2023-07-20T02:22:07;17.83;;;5.60;;
8675;SDS011;4375;52.486;13.424;2023-07-20T02:24:33;18.10;;;5.20;;
8675;SDS011;4375;52.486;13.424;2023-07-20T02:26:59;18.47;;;5.93;;
8675;SDS011;4375;52.486;13.424;2023-07-20T02:29:25;20.40;;;5.87;;
8675;SDS011;4375;52.486;13.424;2023-07-20T02:31:50;21.80;;;6.60;;
8675;SDS011;4375;52.486;13.424;2023-07-20T02:34:16;19.90;;;6.33;;
8675;SDS011;4375;52.486;13.424;2023-07-20T02:36:41;18.47;;;6.90;;
8675;SDS011;4375;52.486;13.424;2023-07-20T02:39:07;20.13;;;7.00;;
8675;SDS011;4375;52.486;13.424;2023-07-20T02:41:33;18.40;;;6.50;;
8675;SDS011;4375;52.486;13.424;2023-07-20T02:43:59;19.87;;;7.37;;
8675;SDS011;4375;52.486;13.424;2023-07-20T02:46:26;21.90;;;7.10;;
8675;SDS011;4375;52.486;13.424;2023-07-20T02:48:51;19.53;;;6.87;;
8675;SDS011;4375;52.486;13.424;2023-07-20T02:51:17;24.60;;;7.50;;
8675;SDS011;4375;52.486;13.424;2023-07-20T02:53:43;19.97;;;7.63;;
8675;SDS011;4375;52.486;13.424;2023-07-20T02:56:08;22.40;;;7.43;;
8675;SDS011;4375;52.486;13.424;2023-07-20T02:58:34;20.23;;;7.70;;
8675;SDS011;4375;52.486;13.424;2023-07-20T03:01:03;20.50;;;7.93;;
8675;SDS011;4375;52.486;13.424;2023-07-20T03:03:29;23.47;;;9.80;;
8675;SDS011;4375;52.486;13.424;2023-07-20T03:05:55;24.23;;;9.57;;
8675;SDS011;4375;52.486;13.424;2023-07-20T03:08:22;22.73;;;9.97;;
8675;SDS011;4375;52.486;13.424;2023-07-20T03:10:48;22.27;;;9.70;;
8675;SDS011;4375;52.486;13.424;2023-07-20T03:13:14;21.30;;;9.87;;
8675;SDS011;4375;52.486;13.424;2023-07-20T03:15:41;21.43;;;9.03;;
8675;SDS011;4375;52.486;13.424;2023-07-20T03:18:06;24.30;;;11.20;;
8675;SDS011;4375;52.486;13.424;2023-07-20T03:20:32;24.60;;;11.17;;
8675;SDS011;4375;52.486;13.424;2023-07-20T03:22:58;24.73;;;11.30;;
8675;SDS011;4375;52.486;13.424;2023-07-20T03:25:23;22.77;;;10.70;;
8675;SDS011;4375;52.486;13.424;2023-07-20T03:27:49;24.07;;;10.70;;
8675;SDS011;4375;52.486;13.424;2023-07-20T03:30:14;23.90;;;10.87;;
8675;SDS011;4375;52.486;13.424;2023-07-20T03:32:40;23.90;;;10.40;;
8675;SDS011;4375;52.486;13.424;2023-07-20T03:35:06;27.43;;;11.93;;
8675;SDS011;4375;52.486;13.424;2023-07-20T03:37:32;23.53;;;11.17;;
8675;SDS011;4375;52.486;13.424;2023-07-20T03:39:59;25.70;;;12.43;;
8675;SDS011;4375;52.486;13.424;2023-07-20T03:42:25;26.03;;;11.87;;
8675;SDS011;4375;52.486;13.424;2023-07-20T03:44:51;24.87;;;10.93;;
8675;SDS011;4375;52.486;13.424;2023-07-20T03:47:16;23.30;;;10.40;;
8675;SDS011;4375;52.486;13.424;2023-07-20T03:49:42;23.93;;;10.20;;
8675;SDS011;4375;52.486;13.424;2023-07-20T03:52:07;22.37;;;10.33;;
8675;SDS011;4375;52.486;13.424;2023-07-20T03:54:33;27.73;;;9.57;;
8675;SDS011;4375;52.486;13.424;2023-07-20T03:56:59;23.77;;;10.60;;
8675;SDS011;4375;52.486;13.424;2023-07-20T03:59:25;26.67;;;13.80;;
8675;SDS011;4375;52.486;13.424;2023-07-20T04:01:51;26.13;;;14.50;;
8675;SDS011;4375;52.486;13.424;2023-07-20T04:04:17;27.37;;;14.60;;
8675;SDS011;4375;52.486;13.424;2023-07-20T04:06:43;24.13;;;12.30;;
8675;SDS011;4375;52.486;13.424;2023-07-20T04:09:09;24.90;;;10.90;;
8675;SDS011;4375;52.486;13.424;2023-07-20T04:11:36;22.50;;;10.47;;
8675;SDS011;4375;52.486;13.424;2023-07-20T04:14:02;25.30;;;10.40;;
8675;SDS011;4375;52.486;13.424;2023-07-20T04:16:27;22.73;;;9.63;;
8675;SDS011;4375;52.486;13.424;2023-07-20T04:18:56;21.83;;;8.90;;
8675;SDS011;4375;52.486;13.424;2023-07-20T04:21:22;20.00;;;8.10;;
8675;SDS011;4375;52.486;13.424;2023-07-20T04:23:48;21.43;;;8.90;;
8675;SDS011;4375;52.486;13.424;2023-07-20T04:26:14;22.47;;;8.00;;
8675;SDS011;4375;52.486;13.424;2023-07-20T04:28:40;18.80;;;7.30;;
8675;SDS011;4375;52.486;13.424;2023-07-20T04:31:14;22.10;;;7.70;;
8675;SDS011;4375;52.486;13.424;2023-07-20T04:33:40;20.20;;;7.33;;
8675;SDS011;4375;52.486;13.424;2023-07-20T04:36:06;20.50;;;7.90;;
8675;SDS011;4375;52.486;13.424;2023-07-20T04:38:32;22.23;;;7.83;;
8675;SDS011;4375;52.486;13.424;2023-07-20T04:40:58;21.63;;;7.80;;
8675;SDS011;4375;52.486;13.424;2023-07-20T04:43:24;22.00;;;8.50;;
8675;SDS011;4375;52.486;13.424;2023-07-20T04:45:49;22.37;;;9.37;;
8675;SDS011;4375;52.486;13.424;2023-07-20T04:48:16;21.10;;;8.77;;
8675;SDS011;4375;52.486;13.424;2023-07-20T04:50:45;21.93;;;8.80;;
8675;SDS011;4375;52.486;13.424;2023-07-20T04:53:11;23.43;;;9.47;;
8675;SDS011;4375;52.486;13.424;2023-07-20T04:55:40;23.13;;;8.80;;
8675;SDS011;4375;52.486;13.424;2023-07-20T04:58:15;22.10;;;8.77;;
8675;SDS011;4375;52.486;13.424;2023-07-20T05:00:42;21.27;;;8.63;;
8675;SDS011;4375;52.486;13.424;2023-07-20T05:03:07;19.03;;;8.20;;
8675;SDS011;4375;52.486;13.424;2023-07-20T05:05:35;22.97;;;8.73;;
8675;SDS011;4375;52.486;13.424;2023-07-20T05:08:00;19.57;;;7.30;;
8675;SDS011;4375;52.486;13.424;2023-07-20T05:10:26;20.97;;;8.10;;
8675;SDS011;4375;52.486;13.424;2023-07-20T05:12:52;22.30;;;8.37;;
8675;SDS011;4375;52.486;13.424;2023-07-20T05:15:17;18.87;;;6.90;;
8675;SDS011;4375;52.486;13.424;2023-07-20T05:17:43;19.07;;;7.30;;
8675;SDS011;4375;52.486;13.424;2023-07-20T05:20:09;21.93;;;6.50;;
8675;SDS011;4375;52.486;13.424;2023-07-20T05:22:35;20.27;;;7.10;;
8675;SDS011;4375;52.486;13.424;2023-07-20T05:25:04;19.00;;;6.63;;
8675;SDS011;4375;52.486;13.424;2023-07-20T05:27:32;18.70;;;6.57;;
8675;SDS011;4375;52.486;13.424;2023-07-20T05:29:57;19.17;;;6.10;;
8675;SDS011;4375;52.486;13.424;2023-07-20T05:32:23;18.00;;;5.70;;
8675;SDS011;4375;52.486;13.424;2023-07-20T05:34:51;20.63;;;6.20;;
8675;SDS011;4375;52.486;13.424;2023-07-20T05:37:18;17.77;;;5.10;;
8675;SDS011;4375;52.486;13.424;2023-07-20T05:39:43;17.20;;;5.43;;
8675;SDS011;4375;52.486;13.424;2023-07-20T05:42:09;18.50;;;5.87;;
8675;SDS011;4375;52.486;13.424;2023-07-20T05:44:34;19.70;;;5.97;;
8675;SDS011;4375;52.486;13.424;2023-07-20T05:47:00;17.90;;;5.27;;
8675;SDS011;4375;52.486;13.424;2023-07-20T05:49:27;17.60;;;5.70;;
8675;SDS011;4375;52.486;13.424;2023-07-20T05:51:54;16.80;;;5.00;;
8675;SDS011;4375;52.486;13.424;2023-07-20T05:54:20;26.37;;;6.60;;
8675;SDS011;4375;52.486;13.424;2023-07-20T05:56:46;18.67;;;6.10;;
8675;SDS011;4375;52.486;13.424;2023-07-20T05:59:12;18.57;;;5.50;;
8675;SDS011;4375;52.486;13.424;2023-07-20T06:01:38;16.63;;;4.93;;
8675;SDS011;4375;52.486;13.424;2023-07-20T06:04:03;20.73;;;6.03;;
8675;SDS011;4375;52.486;13.424;2023-07-20T06:06:29;16.83;;;5.10;;
8675;SDS011;4375;52.486;13.424;2023-07-20T06:08:55;19.13;;;5.00;;
8675;SDS011;4375;52.486;13.424;2023-07-20T06:11:20;18.80;;;6.10;;
8675;SDS011;4375;52.486;13.424;2023-07-20T06:13:46;21.83;;;6.20;;
8675;SDS011;4375;52.486;13.424;2023-07-20T06:16:12;20.80;;;6.60;;
8675;SDS011;4375;52.486;13.424;2023-07-20T06:18:37;21.93;;;7.90;;
8675;SDS011;4375;52.486;13.424;2023-07-20T06:21:03;18.93;;;5.93;;
8675;SDS011;4375;52.486;13.424;2023-07-20T06:23:29;20.67;;;6.80;;
8675;SDS011;4375;52.486;13.424;2023-07-20T06:25:55;19.20;;;7.60;;
8675;SDS011;4375;52.486;13.424;2023-07-20T06:28:21;18.37;;;6.90;;
8675;SDS011;4375;52.486;13.424;2023-07-20T06:30:46;21.07;;;7.60;;
8675;SDS011;4375;52.486;13.424;2023-07-20T06:33:12;18.30;;;6.70;;
8675;SDS011;4375;52.486;13.424;2023-07-20T06:35:37;18.90;;;6.70;;
8675;SDS011;4375;52.486;13.424;2023-07-20T06:38:07;20.50;;;5.90;;
8675;SDS011;4375;52.486;13.424;2023-07-20T06:40:33;16.87;;;5.50;;
8675;SDS011;4375;52.486;13.424;2023-07-20T06:42:59;17.73;;;5.93;;
8675;SDS011;4375;52.486;13.424;2023-07-20T06:45:24;17.57;;;5.27;;
8675;SDS011;4375;52.486;13.424;2023-07-20T06:47:50;17.70;;;4.90;;
8675;SDS011;4375;52.486;13.424;2023-07-20T06:50:16;16.67;;;4.43;;
8675;SDS011;4375;52.486;13.424;2023-07-20T06:52:42;16.50;;;4.17;;
8675;SDS011;4375;52.486;13.424;2023-07-20T06:55:07;15.67;;;3.73;;
8675;SDS011;4375;52.486;13.424;2023-07-20T06:57:33;17.13;;;3.50;;
8675;SDS011;4375;52.486;13.424;2023-07-20T06:59:59;16.70;;;3.17;;
8675;SDS011;4375;52.486;13.424;2023-07-20T07:02:24;16.23;;;3.17;;
8675;SDS011;4375;52.486;13.424;2023-07-20T07:04:50;16.57;;;3.00;;
8675;SDS011;4375;52.486;13.424;2023-07-20T07:07:16;15.00;;;2.73;;
8675;SDS011;4375;52.486;13.424;2023-07-20T07:09:41;16.70;;;2.93;;
8675;SDS011;4375;52.486;13.424;2023-07-20T07:12:07;15.00;;;2.83;;
8675;SDS011;4375;52.486;13.424;2023-07-20T07:14:33;16.63;;;3.33;;
8675;SDS011;4375;52.486;13.424;2023-07-20T07:16:59;17.43;;;2.97;;
8675;SDS011;4375;52.486;13.424;2023-07-20T07:19:25;15.83;;;2.63;;
8675;SDS011;4375;52.486;13.424;2023-07-20T07:21:51;16.63;;;2.70;;
8675;SDS011;4375;52.486;13.424;2023-07-20T07:24:17;14.40;;;2.40;;
8675;SDS011;4375;52.486;13.424;2023-07-20T07:26:45;17.20;;;2.30;;
8675;SDS011;4375;52.486;13.424;2023-07-20T07:29:11;16.53;;;2.70;;
8675;SDS011;4375;52.486;13.424;2023-07-20T07:31:39;20.70;;;2.43;;
8675;SDS011;4375;52.486;13.424;2023-07-20T07:34:04;17.23;;;2.40;;
8675;SDS011;4375;52.486;13.424;2023-07-20T07:36:30;17.13;;;2.60;;
8675;SDS011;4375;52.486;13.424;2023-07-20T07:38:56;16.80;;;2.50;;
8675;SDS011;4375;52.486;13.424;2023-07-20T07:41:22;14.80;;;2.00;;
8675;SDS011;4375;52.486;13.424;2023-07-20T07:43:48;14.67;;;1.73;;
8675;SDS011;4375;52.486;13.424;2023-07-20T07:46:13;15.20;;;2.20;;
8675;SDS011;4375;52.486;13.424;2023-07-20T07:48:39;15.20;;;1.90;;
8675;SDS011;4375;52.486;13.424;2023-07-20T07:51:05;23.27;;;1.87;;
8675;SDS011;4375;52.486;13.424;2023-07-20T07:53:31;17.03;;;2.00;;
8675;SDS011;4375;52.486;13.424;2023-07-20T07:55:57;15.10;;;1.70;;
8675;SDS011;4375;52.486;13.424;2023-07-20T07:58:23;14.63;;;1.50;;
8675;SDS011;4375;52.486;13.424;2023-07-20T08:00:49;14.67;;;1.47;;
8675;SDS011;4375;52.486;13.424;2023-07-20T08:03:15;14.70;;;1.57;;
8675;SDS011;4375;52.486;13.424;2023-07-20T08:05:40;13.63;;;1.30;;
8675;SDS011;4375;52.486;13.424;2023-07-20T08:08:06;13.90;;;1.30;;
8675;SDS011;4375;52.486;13.424;2023-07-20T08:10:33;13.80;;;1.10;;
8675;SDS011;4375;52.486;13.424;2023-07-20T08:12:59;13.97;;;1.20;;
8675;SDS011;4375;52.486;13.424;2023-07-20T08:15:25;17.90;;;1.80;;
8675;SDS011;4375;52.486;13.424;2023-07-20T08:17:50;14.60;;;1.40;;
8675;SDS011;4375;52.486;13.424;2023-07-20T08:20:17;14.90;;;1.50;;
8675;SDS011;4375;52.486;13.424;2023-07-20T08:22:42;14.47;;;1.57;;
8675;SDS011;4375;52.486;13.424;2023-07-20T08:25:09;13.37;;;1.10;;
8675;SDS011;4375;52.486;13.424;2023-07-20T08:27:35;13.90;;;1.50;;
8675;SDS011;4375;52.486;13.424;2023-07-20T08:30:02;14.27;;;1.50;;
8675;SDS011;4375;52.486;13.424;2023-07-20T08:32:29;13.77;;;1.30;;
8675;SDS011;4375;52.486;13.424;2023-07-20T08:34:55;16.37;;;1.73;;
8675;SDS011;4375;52.486;13.424;2023-07-20T08:37:20;13.77;;;1.60;;
8675;SDS011;4375;52.486;13.424;2023-07-20T08:39:46;14.13;;;1.70;;
8675;SDS011;4375;52.486;13.424;2023-07-20T08:42:12;15.07;;;1.90;;
8675;SDS011;4375;52.486;13.424;2023-07-20T08:44:39;16.03;;;1.53;;
8675;SDS011;4375;52.486;13.424;2023-07-20T08:47:07;13.27;;;1.00;;
8675;SDS011;4375;52.486;13.424;2023-07-20T08:49:34;14.23;;;1.20;;
8675;SDS011;4375;52.486;13.424;2023-07-20T08:52:00;13.50;;;1.10;;
8675;SDS011;4375;52.486;13.424;2023-07-20T08:54:27;13.60;;;1.40;;
8675;SDS011;4375;52.486;13.424;2023-07-20T08:57:02;13.90;;;1.40;;
8675;SDS011;4375;52.486;13.424;2023-07-20T08:59:29;14.57;;;1.53;;
8675;SDS011;4375;52.486;13.424;2023-07-20T09:01:58;14.37;;;1.33;;
8675;SDS011;4375;52.486;13.424;2023-07-20T09:04:25;16.63;;;1.20;;
8675;SDS011;4375;52.486;13.424;2023-07-20T09:06:50;14.77;;;1.70;;
8675;SDS011;4375;52.486;13.424;2023-07-20T09:09:17;16.33;;;1.40;;
8675;SDS011;4375;52.486;13.424;2023-07-20T09:11:43;14.57;;;1.30;;
8675;SDS011;4375;52.486;13.424;2023-07-20T09:14:12;17.30;;;1.70;;
8675;SDS011;4375;52.486;13.424;2023-07-20T09:16:50;13.77;;;1.00;;
8675;SDS011;4375;52.486;13.424;2023-07-20T09:19:19;13.70;;;1.20;;
8675;SDS011;4375;52.486;13.424;2023-07-20T09:21:46;17.10;;;1.13;;
8675;SDS011;4375;52.486;13.424;2023-07-20T09:24:13;13.60;;;1.10;;
8675;SDS011;4375;52.486;13.424;2023-07-20T09:26:42;15.30;;;1.90;;
8675;SDS011;4375;52.486;13.424;2023-07-20T09:29:19;14.00;;;1.30;;
8675;SDS011;4375;52.486;13.424;2023-07-20T09:44:58;13.30;;;1.10;;
8675;SDS011;4375;52.486;13.424;2023-07-20T09:47:24;13.60;;;1.10;;
8675;SDS011;4375;52.486;13.424;2023-07-20T09:49:57;13.30;;;1.17;;
8675;SDS011;4375;52.486;13.424;2023-07-20T09:52:25;13.37;;;1.00;;
8675;SDS011;4375;52.486;13.424;2023-07-20T09:54:51;13.77;;;1.10;;
8675;SDS011;4375;52.486;13.424;2023-07-20T09:57:20;14.73;;;1.30;;
8675;SDS011;4375;52.486;13.424;2023-07-20T10:00:01;15.70;;;1.23;;
8675;SDS011;4375;52.486;13.424;2023-07-20T10:02:36;14.10;;;1.17;;
8675;SDS011;4375;52.486;13.424;2023-07-20T10:05:08;16.50;;;1.20;;
8675;SDS011;4375;52.486;13.424;2023-07-20T10:07:48;13.87;;;1.30;;
8675;SDS011;4375;52.486;13.424;2023-07-20T10:10:16;14.30;;;1.20;;
8675;SDS011;4375;52.486;13.424;2023-07-20T10:12:45;13.37;;;1.10;;
8675;SDS011;4375;52.486;13.424;2023-07-20T10:15:29;14.50;;;1.20;;
8675;SDS011;4375;52.486;13.424;2023-07-20T10:18:07;14.03;;;1.50;;
8675;SDS011;4375;52.486;13.424;2023-07-20T10:20:39;15.37;;;1.77;;
8675;SDS011;4375;52.486;13.424;2023-07-20T10:23:08;18.07;;;1.87;;
8675;SDS011;4375;52.486;13.424;2023-07-20T10:25:35;15.83;;;2.87;;
8675;SDS011;4375;52.486;13.424;2023-07-20T10:28:06;14.40;;;1.50;;
8675;SDS011;4375;52.486;13.424;2023-07-20T10:30:36;14.10;;;1.60;;
8675;SDS011;4375;52.486;13.424;2023-07-20T10:33:02;13.97;;;1.30;;
8675;SDS011;4375;52.486;13.424;2023-07-20T10:35:29;15.47;;;1.60;;
8675;SDS011;4375;52.486;13.424;2023-07-20T10:38:04;20.03;;;1.97;;
8675;SDS011;4375;52.486;13.424;2023-07-20T10:40:33;14.17;;;1.53;;
8675;SDS011;4375;52.486;13.424;2023-07-20T10:43:11;14.17;;;1.40;;
8675;SDS011;4375;52.486;13.424;2023-07-20T10:45:52;16.73;;;1.50;;
8675;SDS011;4375;52.486;13.424;2023-07-20T10:48:19;14.30;;;1.40;;
8675;SDS011;4375;52.486;13.424;2023-07-20T10:53:41;14.47;;;1.67;;
8675;SDS011;4375;52.486;13.424;2023-07-20T10:56:13;14.07;;;1.60;;
8675;SDS011;4375;52.486;13.424;2023-07-20T10:58:40;16.53;;;3.17;;
8675;SDS011;4375;52.486;13.424;2023-07-20T11:01:07;15.20;;;2.33;;
8675;SDS011;4375;52.486;13.424;2023-07-20T11:03:34;17.43;;;1.80;;
8675;SDS011;4375;52.486;13.424;2023-07-20T11:11:40;15.43;;;1.70;;
8675;SDS011;4375;52.486;13.424;2023-07-20T11:14:29;17.23;;;1.70;;
8675;SDS011;4375;52.486;13.424;2023-07-20T11:16:57;16.13;;;1.40;;
8675;SDS011;4375;52.486;13.424;2023-07-20T11:19:40;18.70;;;3.87;;
8675;SDS011;4375;52.486;13.424;2023-07-20T11:22:06;15.07;;;1.30;;
8675;SDS011;4375;52.486;13.424;2023-07-20T11:24:33;17.23;;;1.40;;
8675;SDS011;4375;52.486;13.424;2023-07-20T11:26:59;13.60;;;1.30;;
8675;SDS011;4375;52.486;13.424;2023-07-20T11:29:26;14.70;;;1.50;;
8675;SDS011;4375;52.486;13.424;2023-07-20T11:31:51;13.80;;;1.40;;
8675;SDS011;4375;52.486;13.424;2023-07-20T11:34:18;16.07;;;1.50;;
8675;SDS011;4375;52.486;13.424;2023-07-20T11:36:45;13.37;;;1.40;;
8675;SDS011;4375;52.486;13.424;2023-07-20T11:39:13;17.00;;;1.30;;
8675;SDS011;4375;52.486;13.424;2023-07-20T11:41:49;15.43;;;1.23;;
8675;SDS011;4375;52.486;13.424;2023-07-20T11:44:16;23.80;;;1.93;;
8675;SDS011;4375;52.486;13.424;2023-07-20T11:46:43;15.13;;;1.37;;
8675;SDS011;4375;52.486;13.424;2023-07-20T11:49:10;13.53;;;1.30;;
8675;SDS011;4375;52.486;13.424;2023-07-20T11:51:37;15.50;;;2.70;;
8675;SDS011;4375;52.486;13.424;2023-07-20T11:54:04;14.00;;;1.23;;
8675;SDS011;4375;52.486;13.424;2023-07-20T11:56:32;13.53;;;1.10;;
8675;SDS011;4375;52.486;13.424;2023-07-20T11:58:58;14.93;;;1.17;;
8675;SDS011;4375;52.486;13.424;2023-07-20T12:01:26;14.50;;;1.30;;
8675;SDS011;4375;52.486;13.424;2023-07-20T12:04:00;15.70;;;1.20;;
8675;SDS011;4375;52.486;13.424;2023-07-20T12:06:27;15.30;;;1.30;;
8675;SDS011;4375;52.486;13.424;2023-07-20T12:08:55;13.33;;;1.10;;
8675;SDS011;4375;52.486;13.424;2023-07-20T12:11:35;13.70;;;1.13;;
8675;SDS011;4375;52.486;13.424;2023-07-20T12:14:08;14.37;;;1.50;;
8675;SDS011;4375;52.486;13.424;2023-07-20T12:16:35;13.90;;;1.30;;
8675;SDS011;4375;52.486;13.424;2023-07-20T12:19:03;13.47;;;1.20;;
8675;SDS011;4375;52.486;13.424;2023-07-20T12:21:31;13.27;;;1.23;;
8675;SDS011;4375;52.486;13.424;2023-07-20T12:23:58;13.60;;;1.00;;
8675;SDS011;4375;52.486;13.424;2023-07-20T12:26:25;13.87;;;1.20;;
8675;SDS011;4375;52.486;13.424;2023-07-20T12:28:51;14.70;;;1.07;;
8675;SDS011;4375;52.486;13.424;2023-07-20T12:31:17;14.57;;;1.40;;
8675;SDS011;4375;52.486;13.424;2023-07-20T12:33:43;13.70;;;1.17;;
8675;SDS011;4375;52.486;13.424;2023-07-20T12:36:09;14.60;;;1.37;;
8675;SDS011;4375;52.486;13.424;2023-07-20T12:38:35;13.20;;;1.00;;
8675;SDS011;4375;52.486;13.424;2023-07-20T12:41:01;18.57;;;1.60;;
8675;SDS011;4375;52.486;13.424;2023-07-20T12:43:27;13.70;;;1.13;;
8675;SDS011;4375;52.486;13.424;2023-07-20T12:45:54;13.30;;;1.10;;
8675;SDS011;4375;52.486;13.424;2023-07-20T12:48:20;14.77;;;1.50;;
8675;SDS011;4375;52.486;13.424;2023-07-20T12:50:46;13.33;;;1.10;;
8675;SDS011;4375;52.486;13.424;2023-07-20T12:53:12;14.53;;;1.10;;
8675;SDS011;4375;52.486;13.424;2023-07-20T12:55:38;15.53;;;1.07;;
8675;SDS011;4375;52.486;13.424;2023-07-20T12:58:07;13.80;;;1.00;;
8675;SDS011;4375;52.486;13.424;2023-07-20T13:00:33;13.57;;;1.20;;
8675;SDS011;4375;52.486;13.424;2023-07-20T13:02:59;18.93;;;1.27;;
8675;SDS011;4375;52.486;13.424;2023-07-20T13:05:25;13.90;;;1.27;;
8675;SDS011;4375;52.486;13.424;2023-07-20T13:07:50;14.13;;;1.80;;
8675;SDS011;4375;52.486;13.424;2023-07-20T13:10:16;14.50;;;1.10;;
8675;SDS011;4375;52.486;13.424;2023-07-20T13:12:42;13.50;;;1.10;;
8675;SDS011;4375;52.486;13.424;2023-07-20T13:15:08;13.53;;;1.00;;
8675;SDS011;4375;52.486;13.424;2023-07-20T13:17:36;13.57;;;1.20;;
8675;SDS011;4375;52.486;13.424;2023-07-20T13:20:03;13.50;;;1.20;;
8675;SDS011;4375;52.486;13.424;2023-07-20T13:22:31;13.97;;;1.00;;
8675;SDS011;4375;52.486;13.424;2023-07-20T13:24:57;13.23;;;0.90;;
8675;SDS011;4375;52.486;13.424;2023-07-20T13:27:23;13.87;;;1.20;;
8675;SDS011;4375;52.486;13.424;2023-07-20T13:29:50;13.30;;;0.90;;
8675;SDS011;4375;52.486;13.424;2023-07-20T13:32:16;13.67;;;1.00;;
8675;SDS011;4375;52.486;13.424;2023-07-20T13:34:43;13.90;;;1.10;;
8675;SDS011;4375;52.486;13.424;2023-07-20T13:37:09;18.07;;;3.00;;
8675;SDS011;4375;52.486;13.424;2023-07-20T13:39:36;15.40;;;2.10;;
8675;SDS011;4375;52.486;13.424;2023-07-20T13:42:02;14.00;;;1.40;;
8675;SDS011;4375;52.486;13.424;2023-07-20T13:44:30;14.53;;;1.53;;
8675;SDS011;4375;52.486;13.424;2023-07-20T13:46:56;13.97;;;1.30;;
8675;SDS011;4375;52.486;13.424;2023-07-20T13:49:21;15.67;;;2.00;;
8675;SDS011;4375;52.486;13.424;2023-07-20T13:51:47;21.50;;;4.53;;
8675;SDS011;4375;52.486;13.424;2023-07-20T13:54:13;17.10;;;1.33;;
8675;SDS011;4375;52.486;13.424;2023-07-20T13:56:38;16.60;;;2.17;;
8675;SDS011;4375;52.486;13.424;2023-07-20T13:59:04;15.17;;;1.83;;
8675;SDS011;4375;52.486;13.424;2023-07-20T14:01:30;14.60;;;1.30;;
8675;SDS011;4375;52.486;13.424;2023-07-20T14:03:58;15.53;;;1.60;;
8675;SDS011;4375;52.486;13.424;2023-07-20T14:06:24;16.63;;;1.20;;
8675;SDS011;4375;52.486;13.424;2023-07-20T14:08:50;14.77;;;1.47;;
8675;SDS011;4375;52.486;13.424;2023-07-20T14:11:18;26.50;;;5.50;;
8675;SDS011;4375;52.486;13.424;2023-07-20T14:13:44;15.53;;;2.13;;
8675;SDS011;4375;52.486;13.424;2023-07-20T14:16:10;16.00;;;2.03;;
8675;SDS011;4375;52.486;13.424;2023-07-20T14:18:35;17.50;;;1.60;;
8675;SDS011;4375;52.486;13.424;2023-07-20T14:21:01;16.70;;;1.93;;
8675;SDS011;4375;52.486;13.424;2023-07-20T14:23:28;14.60;;;1.40;;
8675;SDS011;4375;52.486;13.424;2023-07-20T14:25:54;14.57;;;1.40;;
8675;SDS011;4375;52.486;13.424;2023-07-20T14:28:23;14.00;;;1.50;;
8675;SDS011;4375;52.486;13.424;2023-07-20T14:30:49;13.93;;;1.40;;
8675;SDS011;4375;52.486;13.424;2023-07-20T14:33:14;15.40;;;1.10;;
8675;SDS011;4375;52.486;13.424;2023-07-20T14:35:40;14.83;;;1.50;;
8675;SDS011;4375;52.486;13.424;2023-07-20T14:38:05;13.90;;;1.23;;
8675;SDS011;4375;52.486;13.424;2023-07-20T14:40:31;14.90;;;1.30;;
8675;SDS011;4375;52.486;13.424;2023-07-20T14:42:57;14.37;;;1.40;;
8675;SDS011;4375;52.486;13.424;2023-07-20T14:45:24;14.20;;;1.20;;
8675;SDS011;4375;52.486;13.424;2023-07-20T14:47:49;14.00;;;1.20;;
8675;SDS011;4375;52.486;13.424;2023-07-20T14:50:18;16.57;;;1.60;;
8675;SDS011;4375;52.486;13.424;2023-07-20T14:52:45;14.90;;;1.50;;
8675;SDS011;4375;52.486;13.424;2023-07-20T14:55:11;13.17;;;1.10;;
8675;SDS011;4375;52.486;13.424;2023-07-20T14:57:36;16.70;;;2.67;;
8675;SDS011;4375;52.486;13.424;2023-07-20T15:00:03;17.90;;;1.60;;
8675;SDS011;4375;52.486;13.424;2023-07-20T15:02:36;14.77;;;1.40;;
8675;SDS011;4375;52.486;13.424;2023-07-20T15:05:02;13.50;;;1.10;;
8675;SDS011;4375;52.486;13.424;2023-07-20T15:07:28;13.87;;;1.47;;
8675;SDS011;4375;52.486;13.424;2023-07-20T15:09:53;15.40;;;1.37;;
8675;SDS011;4375;52.486;13.424;2023-07-20T15:12:19;14.30;;;1.40;;
8675;SDS011;4375;52.486;13.424;2023-07-20T15:14:47;13.53;;;1.20;;
8675;SDS011;4375;52.486;13.424;2023-07-20T15:17:28;15.27;;;1.67;;
8675;SDS011;4375;52.486;13.424;2023-07-20T15:19:54;14.30;;;1.40;;
8675;SDS011;4375;52.486;13.424;2023-07-20T15:22:19;13.60;;;1.30;;